createdAt,value
2018-03-16T00:00:19.576Z,95176.64
2018-03-16T00:03:42.874Z,95181.08
2018-03-16T00:07:06.170Z,95170.35
2018-03-16T00:10:29.471Z,95174.75
2018-03-16T00:13:53.540Z,95177.93
2018-03-16T00:17:16.917Z,95182.28
2018-03-16T00:20:40.213Z,95196.67
2018-03-16T00:24:03.550Z,95198.70
2018-03-16T00:27:26.924Z,95197.70
2018-03-16T00:30:50.198Z,95203.87
2018-03-16T00:34:14.330Z,95205.38
2018-03-16T00:37:38.602Z,95209.33
2018-03-16T00:41:01.914Z,95199.97
2018-03-16T00:44:25.172Z,95203.04
2018-03-16T00:47:49.207Z,95201.53
2018-03-16T00:51:13.307Z,95193.48
2018-03-16T00:54:36.618Z,95197.88
2018-03-16T00:57:59.876Z,95199.37
2018-03-16T01:01:23.958Z,95194.45
2018-03-16T01:04:47.283Z,95199.19
2018-03-16T01:08:11.370Z,95205.38
2018-03-16T01:11:35.403Z,95210.51
2018-03-16T01:14:59.532Z,95209.07
2018-03-16T01:18:22.904Z,95210.41
2018-03-16T01:21:46.162Z,95210.59
2018-03-16T01:25:09.431Z,95209.13
2018-03-16T01:28:32.709Z,95214.39
2018-03-16T01:31:56.087Z,95216.23
2018-03-16T01:35:20.166Z,95207.51
2018-03-16T01:38:43.415Z,95207.47
2018-03-16T01:42:06.752Z,95212.82
2018-03-16T01:45:30.119Z,95209.89
2018-03-16T01:48:53.439Z,95212.95
2018-03-16T01:52:16.769Z,95206.55
2018-03-16T01:55:40.819Z,95207.72
2018-03-16T01:59:04.935Z,95207.67
2018-03-16T02:02:28.214Z,95204.00
2018-03-16T02:05:52.266Z,95206.77
2018-03-16T02:09:15.587Z,95223.96
2018-03-16T02:12:38.849Z,95213.30
2018-03-16T02:16:02.167Z,95215.13
2018-03-16T02:19:26.196Z,95210.77
2018-03-16T02:22:50.259Z,95202.21
2018-03-16T02:26:13.521Z,95200.38
2018-03-16T02:29:36.775Z,95202.41
2018-03-16T02:33:00.123Z,95191.06
2018-03-16T02:36:23.400Z,95206.22
2018-03-16T02:39:47.486Z,95203.25
2018-03-16T02:43:11.573Z,95200.80
2018-03-16T02:46:35.717Z,95192.17
2018-03-16T02:49:59.843Z,95189.42
2018-03-16T02:53:23.122Z,95193.78
2018-03-16T02:56:47.185Z,95193.05
2018-03-16T03:00:10.447Z,95203.22
2018-03-16T03:03:33.716Z,95195.97
2018-03-16T03:06:57.053Z,95194.91
2018-03-16T03:10:20.346Z,95200.59
2018-03-16T03:13:43.691Z,95201.91
2018-03-16T03:17:07.021Z,95191.56
2018-03-16T03:20:31.149Z,95189.06
2018-03-16T03:23:54.446Z,95194.33
2018-03-16T03:27:17.787Z,95198.37
2018-03-16T03:30:41.090Z,95209.09
2018-03-16T03:34:04.358Z,95204.73
2018-03-16T03:37:27.664Z,95215.13
2018-03-16T03:40:51.695Z,95212.90
2018-03-16T03:44:15.765Z,95213.83
2018-03-16T03:47:39.083Z,95213.30
2018-03-16T03:51:02.383Z,95222.02
2018-03-16T03:54:25.636Z,95220.73
2018-03-16T03:57:49.759Z,95222.55
2018-03-16T04:01:13.083Z,95234.27
2018-03-16T04:04:37.176Z,95231.87
2018-03-16T04:08:01.236Z,95240.34
2018-03-16T04:11:24.620Z,95239.27
2018-03-16T04:14:47.957Z,95244.91
2018-03-16T04:18:11.199Z,95254.36
2018-03-16T04:21:34.573Z,95255.10
2018-03-16T04:24:57.877Z,95259.31
2018-03-16T04:28:21.153Z,95258.18
2018-03-16T04:31:44.452Z,95263.06
2018-03-16T04:35:08.492Z,95266.60
2018-03-16T04:38:32.524Z,95264.91
2018-03-16T04:41:56.571Z,95270.33
2018-03-16T04:45:19.909Z,95274.94
2018-03-16T04:48:43.208Z,95272.28
2018-03-16T04:52:06.508Z,95271.56
2018-03-16T04:55:30.641Z,95268.78
2018-03-16T04:58:53.940Z,95269.45
2018-03-16T05:02:17.281Z,95269.48
2018-03-16T05:05:41.412Z,95274.77
2018-03-16T05:09:05.464Z,95274.91
2018-03-16T05:12:29.528Z,95276.39
2018-03-16T05:15:52.904Z,95281.69
2018-03-16T05:19:16.240Z,95282.12
2018-03-16T05:22:40.984Z,95279.83
2018-03-16T05:26:05.118Z,95290.94
2018-03-16T05:29:28.438Z,95295.12
2018-03-16T05:32:51.755Z,95296.19
2018-03-16T05:36:15.032Z,95301.26
2018-03-16T05:39:39.162Z,95304.82
2018-03-16T05:43:03.226Z,95307.66
2018-03-16T05:46:26.580Z,95308.45
2018-03-16T05:49:50.628Z,95312.44
2018-03-16T05:53:13.951Z,95316.27
2018-03-16T05:56:37.290Z,95323.09
2018-03-16T06:00:00.661Z,95321.87
2018-03-16T06:00:48.051Z,95329.64
2018-03-16T06:04:50.861Z,95332.34
2018-03-16T06:05:25.656Z,95326.49
2018-03-16T06:06:00.950Z,95331.26
2018-03-16T06:06:34.243Z,95326.13
2018-03-16T06:12:05.720Z,95331.77
2018-03-16T06:12:38.550Z,95344.34
2018-03-16T06:13:58.592Z,95340.86
2018-03-16T06:22:06.799Z,95351.41
2018-03-16T06:23:44.526Z,95356.50
2018-03-16T06:29:17.684Z,95345.50
2018-03-16T06:29:51.017Z,95350.34
2018-03-16T06:30:25.092Z,95347.69
2018-03-16T06:30:58.441Z,95347.61
2018-03-16T06:31:31.813Z,95344.20
2018-03-16T06:32:05.188Z,95338.34
2018-03-16T06:32:39.349Z,95338.42
2018-03-16T06:33:12.644Z,95342.12
2018-03-16T06:33:46.784Z,95338.78
2018-03-16T06:34:20.077Z,95342.69
2018-03-16T06:34:54.485Z,95341.63
2018-03-16T06:35:27.775Z,95342.08
2018-03-16T06:36:01.906Z,95340.05
2018-03-16T06:36:35.699Z,95340.39
2018-03-16T06:37:09.100Z,95341.34
2018-03-16T06:37:42.403Z,95343.50
2018-03-16T06:38:15.722Z,95341.02
2018-03-16T06:38:49.836Z,95345.34
2018-03-16T06:39:23.172Z,95345.27
2018-03-16T06:39:56.408Z,95354.37
2018-03-16T06:40:29.729Z,95350.33
2018-03-16T06:41:03.075Z,95349.22
2018-03-16T06:41:36.349Z,95343.83
2018-03-16T06:42:09.684Z,95347.86
2018-03-16T06:42:43.016Z,95350.34
2018-03-16T06:43:16.289Z,95345.20
2018-03-16T06:43:49.560Z,95350.48
2018-03-16T06:44:22.865Z,95350.80
2018-03-16T06:44:56.374Z,95352.97
2018-03-16T06:45:30.211Z,95350.73
2018-03-16T06:46:04.295Z,95349.66
2018-03-16T06:46:37.668Z,95354.32
2018-03-16T06:47:11.026Z,95355.38
2018-03-16T06:47:45.076Z,95351.86
2018-03-16T06:48:19.114Z,95352.59
2018-03-16T06:48:52.461Z,95350.47
2018-03-16T06:49:26.584Z,95352.78
2018-03-16T06:50:00.097Z,95355.30
2018-03-16T06:50:34.128Z,95355.47
2018-03-16T06:51:07.407Z,95359.21
2018-03-16T06:51:40.768Z,95353.34
2018-03-16T06:52:14.090Z,95354.57
2018-03-16T06:52:48.159Z,95357.89
2018-03-16T06:53:21.446Z,95355.98
2018-03-16T06:53:54.744Z,95355.30
2018-03-16T06:54:28.796Z,95348.08
2018-03-16T06:55:02.905Z,95352.89
2018-03-16T06:55:36.409Z,95361.06
2018-03-16T06:56:09.715Z,95356.39
2018-03-16T06:56:43.772Z,95356.05
2018-03-16T06:57:17.174Z,95355.65
2018-03-16T06:57:50.611Z,95360.06
2018-03-16T06:58:23.955Z,95364.67
2018-03-16T06:58:58.053Z,95363.62
2018-03-16T06:59:32.706Z,95359.58
2018-03-16T07:00:06.847Z,95366.95
2018-03-16T07:00:40.144Z,95366.02
2018-03-16T07:01:14.284Z,95363.26
2018-03-16T07:01:47.569Z,95358.05
2018-03-16T07:02:20.884Z,95359.51
2018-03-16T07:02:54.267Z,95357.63
2018-03-16T07:03:28.430Z,95365.56
2018-03-16T07:04:01.787Z,95362.60
2018-03-16T07:04:35.885Z,95375.09
2018-03-16T07:05:10.012Z,95367.04
2018-03-16T07:05:43.306Z,95363.52
2018-03-16T07:06:17.494Z,95362.58
2018-03-16T07:06:50.871Z,95362.76
2018-03-16T07:07:24.197Z,95367.55
2018-03-16T07:07:57.510Z,95361.61
2018-03-16T07:08:31.624Z,95369.58
2018-03-16T07:09:05.024Z,95369.15
2018-03-16T07:09:38.377Z,95363.35
2018-03-16T07:10:12.434Z,95370.06
2018-03-16T07:10:46.534Z,95372.95
2018-03-16T07:11:20.650Z,95370.38
2018-03-16T07:11:53.988Z,95371.81
2018-03-16T07:12:28.258Z,95376.66
2018-03-16T07:13:03.552Z,95371.25
2018-03-16T07:13:38.288Z,95366.93
2018-03-16T07:14:11.720Z,95370.94
2018-03-16T07:14:45.001Z,95371.31
2018-03-16T07:15:37.096Z,95377.44
2018-03-16T07:16:11.140Z,95372.20
2018-03-16T07:16:45.178Z,95370.20
2018-03-16T07:17:19.260Z,95378.29
2018-03-16T07:17:52.618Z,95382.64
2018-03-16T07:18:26.672Z,95376.94
2018-03-16T07:19:33.303Z,95380.00
2018-03-16T07:20:06.616Z,95382.25
2018-03-16T07:20:40.763Z,95374.42
2018-03-16T07:21:14.816Z,95372.06
2018-03-16T07:21:49.973Z,95378.56
2018-03-16T07:22:24.037Z,95382.43
2018-03-16T07:22:58.068Z,95377.76
2018-03-16T07:23:31.384Z,95376.27
2018-03-16T07:24:04.685Z,95379.53
2018-03-16T07:24:37.990Z,95376.88
2018-03-16T07:25:11.308Z,95384.42
2018-03-16T07:25:45.438Z,95386.30
2018-03-16T07:26:18.774Z,95388.95
2018-03-16T07:26:52.195Z,95389.31
2018-03-16T07:27:25.646Z,95386.20
2018-03-16T07:27:59.120Z,95381.23
2018-03-16T07:28:32.440Z,95382.87
2018-03-16T07:29:05.737Z,95386.89
2018-03-16T07:29:39.085Z,95377.69
2018-03-16T07:30:12.570Z,95382.80
2018-03-16T07:30:46.625Z,95382.71
2018-03-16T07:31:20.688Z,95384.73
2018-03-16T07:31:54.062Z,95382.57
2018-03-16T07:32:29.221Z,95384.33
2018-03-16T07:33:02.526Z,95382.30
2018-03-16T07:33:35.814Z,95385.09
2018-03-16T07:34:09.127Z,95387.08
2018-03-16T07:34:43.289Z,95384.53
2018-03-16T07:35:16.568Z,95385.47
2018-03-16T07:35:49.860Z,95386.59
2018-03-16T07:36:23.295Z,95381.35
2018-03-16T07:36:56.581Z,95382.04
2018-03-16T07:37:29.989Z,95387.81
2018-03-16T07:38:03.316Z,95388.33
2018-03-16T07:38:38.167Z,95383.23
2018-03-16T07:39:11.500Z,95383.94
2018-03-16T07:39:44.938Z,95382.37
2018-03-16T07:40:18.238Z,95380.36
2018-03-16T07:40:52.317Z,95386.92
2018-03-16T07:41:25.638Z,95392.02
2018-03-16T07:41:58.926Z,95388.03
2018-03-16T07:42:32.185Z,95388.56
2018-03-16T07:43:06.391Z,95387.03
2018-03-16T07:43:40.478Z,95388.33
2018-03-16T07:44:14.587Z,95390.47
2018-03-16T07:44:47.882Z,95387.20
2018-03-16T07:46:35.277Z,95391.84
2018-03-16T07:47:10.246Z,95390.97
2018-03-16T07:47:43.632Z,95392.84
2018-03-16T07:48:17.758Z,95393.27
2018-03-16T07:48:51.016Z,95397.41
2018-03-16T07:49:27.173Z,95389.48
2018-03-16T07:50:01.458Z,95395.04
2018-03-16T07:50:36.293Z,95390.70
2018-03-16T07:51:09.641Z,95388.84
2018-03-16T07:51:43.022Z,95395.88
2018-03-16T07:52:16.368Z,95397.49
2018-03-16T07:52:51.542Z,95389.94
2018-03-16T07:53:24.915Z,95395.77
2018-03-16T07:53:58.336Z,95395.29
2018-03-16T08:35:30.390Z,95410.75
2018-03-16T08:36:04.848Z,95406.70
2018-03-16T08:36:38.294Z,95403.39
2018-03-16T08:37:11.682Z,95404.57
2018-03-16T08:37:44.970Z,95408.71
2018-03-16T08:38:19.113Z,95409.47
2018-03-16T08:38:52.451Z,95409.47
2018-03-16T08:39:26.549Z,95408.41
2018-03-16T08:40:00.641Z,95407.23
2018-03-16T08:40:33.932Z,95408.52
2018-03-16T08:41:08.019Z,95418.97
2018-03-16T08:41:41.305Z,95414.79
2018-03-16T08:42:14.684Z,95405.48
2018-03-16T08:42:48.015Z,95410.69
2018-03-16T08:43:21.449Z,95408.83
2018-03-16T08:43:54.760Z,95411.89
2018-03-16T08:44:28.987Z,95413.27
2018-03-16T08:45:02.305Z,95417.48
2018-03-16T08:45:35.604Z,95411.97
2018-03-16T08:46:08.926Z,95405.58
2018-03-16T08:46:43.925Z,95405.45
2018-03-16T08:47:18.099Z,95406.80
2018-03-16T08:47:51.388Z,95409.80
2018-03-16T08:48:25.481Z,95409.27
2018-03-16T08:48:58.913Z,95411.69
2018-03-16T08:49:32.312Z,95411.02
2018-03-16T08:50:05.626Z,95406.34
2018-03-16T08:50:38.991Z,95407.68
2018-03-16T08:51:13.101Z,95409.72
2018-03-16T08:51:47.061Z,95406.40
2018-03-16T08:52:20.439Z,95415.30
2018-03-16T08:52:53.774Z,95409.47
2018-03-16T08:53:27.067Z,95410.10
2018-03-16T08:54:00.367Z,95415.23
2018-03-16T08:54:34.541Z,95411.36
2018-03-16T08:55:08.592Z,95408.67
2018-03-16T08:55:41.891Z,95411.00
2018-03-16T08:56:15.195Z,95412.13
2018-03-16T08:56:48.570Z,95408.17
2018-03-16T08:57:21.903Z,95405.41
2018-03-16T08:57:55.297Z,95412.38
2018-03-16T08:58:28.780Z,95399.97
2018-03-16T08:59:02.083Z,95401.67
2018-03-16T08:59:36.214Z,95407.25
2018-03-16T09:00:09.496Z,95408.08
2018-03-16T09:00:43.031Z,95405.91
2018-03-16T09:01:16.333Z,95407.44
2018-03-16T09:01:49.694Z,95409.52
2018-03-16T09:02:23.025Z,95404.36
2018-03-16T09:02:57.319Z,95402.70
2018-03-16T09:03:30.805Z,95410.20
2018-03-16T09:04:04.130Z,95410.87
2018-03-16T09:04:38.192Z,95411.87
2018-03-16T09:05:11.456Z,95401.81
2018-03-16T09:05:45.530Z,95410.09
2018-03-16T09:06:18.892Z,95413.44
2018-03-16T09:06:52.288Z,95407.76
2018-03-16T09:07:25.597Z,95416.61
2018-03-16T09:07:59.732Z,95417.70
2018-03-16T09:08:33.669Z,95408.70
2018-03-16T09:09:07.059Z,95409.84
2018-03-16T09:09:41.149Z,95413.55
2018-03-16T09:10:15.333Z,95412.98
2018-03-16T09:10:48.747Z,95413.70
2018-03-16T09:11:23.313Z,95413.19
2018-03-16T09:11:56.611Z,95417.74
2018-03-16T09:12:29.970Z,95416.62
2018-03-16T09:13:04.025Z,95414.95
2018-03-16T09:13:38.164Z,95416.57
2018-03-16T09:14:11.569Z,95417.41
2018-03-16T09:14:45.665Z,95428.19
2018-03-16T09:15:19.782Z,95424.75
2018-03-16T09:15:53.128Z,95416.94
2018-03-16T09:16:26.545Z,95419.41
2018-03-16T09:17:00.597Z,95421.13
2018-03-16T09:17:34.660Z,95418.98
2018-03-16T09:18:08.123Z,95422.94
2018-03-16T09:18:41.378Z,95426.86
2018-03-16T09:19:15.166Z,95420.97
2018-03-16T09:19:48.470Z,95417.05
2018-03-16T09:20:23.333Z,95420.85
2018-03-16T09:20:56.617Z,95429.08
2018-03-16T09:21:30.694Z,95422.36
2018-03-16T09:22:05.205Z,95420.53
2018-03-16T09:22:38.506Z,95423.25
2018-03-16T09:23:12.644Z,95437.25
2018-03-16T09:23:45.946Z,95430.69
2018-03-16T09:24:20.121Z,95423.13
2018-03-16T09:24:53.419Z,95432.44
2018-03-16T09:25:27.545Z,95430.91
2018-03-16T09:26:00.903Z,95425.89
2018-03-16T09:26:34.964Z,95422.16
2018-03-16T09:27:09.149Z,95424.00
2018-03-16T09:27:43.269Z,95426.10
2018-03-16T09:28:16.596Z,95418.33
2018-03-16T09:28:50.648Z,95424.81
2018-03-16T09:29:24.532Z,95421.50
2018-03-16T09:29:58.615Z,95414.67
2018-03-16T09:30:31.933Z,95425.67
2018-03-16T09:31:05.234Z,95430.22
2018-03-16T09:31:38.658Z,95422.11
2018-03-16T09:32:11.956Z,95428.93
2018-03-16T09:32:46.002Z,95434.80
2018-03-16T09:33:20.060Z,95423.77
2018-03-16T09:33:54.198Z,95431.32
2018-03-16T09:34:28.256Z,95423.97
2018-03-16T09:35:03.550Z,95428.87
2018-03-16T09:35:36.949Z,95422.42
2018-03-16T09:36:10.287Z,95423.23
2018-03-16T09:36:43.569Z,95424.95
2018-03-16T09:37:17.822Z,95431.47
2018-03-16T09:37:51.916Z,95424.58
2018-03-16T09:38:25.222Z,95425.21
2018-03-16T09:38:59.302Z,95421.34
2018-03-16T09:39:33.454Z,95421.28
2018-03-16T09:40:07.524Z,95424.22
2018-03-16T09:40:41.800Z,95419.64
2018-03-16T09:41:15.238Z,95420.78
2018-03-16T09:41:49.318Z,95417.31
2018-03-16T09:42:22.665Z,95422.35
2018-03-16T09:42:56.047Z,95413.63
2018-03-16T09:43:29.410Z,95423.89
2018-03-16T09:44:02.714Z,95425.80
2018-03-16T09:44:37.735Z,95423.48
2018-03-16T09:45:11.036Z,95422.42
2018-03-16T09:45:45.171Z,95424.51
2018-03-16T09:46:19.311Z,95421.56
2018-03-16T09:46:52.701Z,95420.16
2018-03-16T09:47:26.000Z,95416.09
2018-03-16T09:48:00.037Z,95423.47
2018-03-16T09:48:33.411Z,95420.53
2018-03-16T09:49:06.713Z,95415.27
2018-03-16T09:49:40.769Z,95419.22
2018-03-16T09:50:14.864Z,95423.76
2018-03-16T09:50:49.041Z,95420.83
2018-03-16T09:51:23.664Z,95425.77
2018-03-16T09:51:57.784Z,95423.76
2018-03-16T09:52:31.833Z,95420.55
2018-03-16T09:53:05.185Z,95423.55
2018-03-16T09:53:39.846Z,95430.20
2018-03-16T09:54:13.147Z,95421.00
2018-03-16T09:55:04.256Z,95419.13
2018-03-16T09:55:44.178Z,95428.00
2018-03-16T09:56:18.379Z,95431.25
2018-03-16T09:56:52.974Z,95424.36
2018-03-16T09:57:26.364Z,95427.14
2018-03-16T09:57:59.695Z,95427.98
2018-03-16T09:58:33.836Z,95421.62
2018-03-16T09:59:07.132Z,95426.17
2018-03-16T09:59:41.207Z,95431.53
2018-03-16T10:00:14.506Z,95437.43
2018-03-16T10:00:48.547Z,95431.41
2018-03-16T10:01:21.986Z,95428.11
2018-03-16T10:01:55.383Z,95442.70
2018-03-16T10:02:29.455Z,95437.47
2018-03-16T10:03:03.991Z,95437.14
2018-03-16T10:03:38.109Z,95437.24
2018-03-16T10:04:11.505Z,95434.33
2018-03-16T10:04:44.841Z,95433.98
2018-03-16T10:05:18.194Z,95435.35
2018-03-16T10:05:52.393Z,95436.13
2018-03-16T10:06:27.589Z,95430.81
2018-03-16T10:07:01.630Z,95431.30
2018-03-16T10:07:35.039Z,95439.56
2018-03-16T10:08:08.350Z,95433.04
2018-03-16T10:08:42.469Z,95426.20
2018-03-16T10:09:15.796Z,95427.78
2018-03-16T10:09:49.212Z,95427.87
2018-03-16T10:10:23.317Z,95421.16
2018-03-16T10:10:56.856Z,95425.74
2018-03-16T10:11:30.248Z,95426.56
2018-03-16T10:12:03.584Z,95426.51
2018-03-16T10:12:36.920Z,95427.27
2018-03-16T10:13:11.203Z,95425.33
2018-03-16T10:13:45.257Z,95432.59
2018-03-16T10:14:20.416Z,95429.59
2018-03-16T10:14:54.499Z,95428.81
2018-03-16T10:15:27.836Z,95438.17
2018-03-16T10:16:01.194Z,95429.42
2018-03-16T10:16:34.504Z,95428.78
2018-03-16T10:17:08.630Z,95429.44
2018-03-16T10:17:42.651Z,95427.47
2018-03-16T10:18:26.979Z,95439.37
2018-03-16T10:19:00.326Z,95433.85
2018-03-16T10:19:34.526Z,95434.55
2018-03-16T10:20:10.388Z,95427.91
2018-03-16T10:20:44.449Z,95427.28
2018-03-16T10:21:17.956Z,95438.06
2018-03-16T10:21:54.252Z,95429.87
2018-03-16T10:22:28.444Z,95429.95
2018-03-16T10:23:01.774Z,95434.36
2018-03-16T10:23:35.080Z,95432.16
2018-03-16T10:24:09.154Z,95440.33
2018-03-16T10:24:42.441Z,95445.66
2018-03-16T10:25:15.748Z,95437.24
2018-03-16T10:25:49.829Z,95439.91
2018-03-16T10:26:23.122Z,95429.05
2018-03-16T10:26:57.216Z,95440.04
2018-03-16T10:27:32.747Z,95436.71
2018-03-16T10:28:06.081Z,95439.67
2018-03-16T10:28:40.899Z,95436.69
2018-03-16T10:29:14.969Z,95433.31
2018-03-16T10:29:48.413Z,95435.63
2018-03-16T10:30:21.797Z,95431.72
2018-03-16T10:30:56.184Z,95438.38
2018-03-16T10:31:31.582Z,95436.30
2018-03-16T10:32:04.892Z,95438.43
2018-03-16T10:32:38.226Z,95440.83
2018-03-16T10:33:11.530Z,95433.86
2018-03-16T10:33:44.855Z,95441.89
2018-03-16T10:34:18.192Z,95436.02
2018-03-16T10:34:51.612Z,95438.27
2018-03-16T10:35:27.951Z,95447.08
2018-03-16T10:36:02.306Z,95442.80
2018-03-16T10:36:36.473Z,95442.92
2018-03-16T10:37:09.837Z,95445.81
2018-03-16T10:37:43.970Z,95444.99
2018-03-16T10:38:17.280Z,95443.73
2018-03-16T10:38:51.393Z,95446.09
2018-03-16T10:39:24.768Z,95442.37
2018-03-16T10:39:58.097Z,95445.86
2018-03-16T10:40:31.459Z,95448.20
2018-03-16T10:41:06.642Z,95448.84
2018-03-16T10:41:41.952Z,95446.62
2018-03-16T10:42:15.334Z,95437.02
2018-03-16T10:42:48.676Z,95437.97
2018-03-16T10:43:22.662Z,95439.91
2018-03-16T10:43:56.127Z,95444.09
2018-03-16T10:44:30.198Z,95439.57
2018-03-16T10:45:03.703Z,95442.12
2018-03-16T10:45:39.009Z,95441.23
2018-03-16T10:46:12.320Z,95437.83
2018-03-16T10:46:46.376Z,95438.84
2018-03-16T10:47:19.669Z,95435.83
2018-03-16T10:47:52.977Z,95441.35
2018-03-16T10:48:27.057Z,95443.84
2018-03-16T10:49:01.021Z,95445.61
2018-03-16T10:49:34.440Z,95442.33
2018-03-16T10:50:07.867Z,95437.53
2018-03-16T10:50:41.277Z,95435.61
2018-03-16T10:51:15.425Z,95444.95
2018-03-16T10:51:49.725Z,95440.50
2018-03-16T10:52:25.188Z,95439.12
2018-03-16T10:52:58.572Z,95442.25
2018-03-16T10:53:31.906Z,95442.78
2018-03-16T10:54:05.246Z,95441.23
2018-03-16T10:54:38.720Z,95436.30
2018-03-16T10:55:13.182Z,95441.63
2018-03-16T10:55:48.236Z,95445.18
2018-03-16T10:56:22.350Z,95446.47
2018-03-16T10:56:55.674Z,95443.36
2018-03-16T10:57:29.768Z,95443.73
2018-03-16T10:58:03.277Z,95435.09
2018-03-16T10:58:36.577Z,95438.59
2018-03-16T10:59:10.685Z,95441.50
2018-03-16T10:59:44.465Z,95433.09
2018-03-16T11:00:23.985Z,95437.36
2018-03-16T11:00:59.846Z,95438.61
2018-03-16T11:01:38.641Z,95436.31
2018-03-16T11:02:18.188Z,95440.88
2018-03-16T11:02:51.504Z,95439.48
2018-03-16T11:03:25.683Z,95443.72
2018-03-16T11:03:59.781Z,95438.08
2018-03-16T11:04:38.747Z,95434.63
2018-03-16T11:05:17.536Z,95438.05
2018-03-16T11:05:55.553Z,95433.69
2018-03-16T11:06:34.863Z,95442.08
2018-03-16T11:07:09.048Z,95445.33
2018-03-16T11:07:44.123Z,95440.59
2018-03-16T11:08:23.767Z,95440.39
2018-03-16T11:08:57.187Z,95445.96
2018-03-16T11:09:31.383Z,95443.50
2018-03-16T11:10:04.715Z,95439.59
2018-03-16T11:10:38.149Z,95446.62
2018-03-16T11:11:12.277Z,95442.52
2018-03-16T11:11:46.382Z,95439.43
2018-03-16T11:12:20.432Z,95446.16
2018-03-16T11:12:53.902Z,95441.83
2018-03-16T11:13:27.200Z,95452.16
2018-03-16T11:14:01.187Z,95450.78
2018-03-16T11:14:34.478Z,95442.80
2018-03-16T11:15:08.688Z,95455.33
2018-03-16T11:15:42.778Z,95449.59
2018-03-16T11:16:16.106Z,95453.43
2018-03-16T11:16:49.498Z,95452.42
2018-03-16T11:17:23.578Z,95450.73
2018-03-16T11:17:56.931Z,95450.74
2018-03-16T11:18:30.291Z,95453.16
2018-03-16T11:19:03.619Z,95450.64
2018-03-16T11:19:36.959Z,95450.41
2018-03-16T11:20:10.913Z,95446.67
2018-03-16T11:20:45.263Z,95453.14
2018-03-16T11:21:19.729Z,95452.93
2018-03-16T11:21:53.845Z,95451.58
2018-03-16T11:22:27.918Z,95453.16
2018-03-16T11:23:01.350Z,95457.12
2018-03-16T11:23:35.501Z,95458.59
2018-03-16T11:24:08.854Z,95467.16
2018-03-16T11:24:43.012Z,95454.08
2018-03-16T11:25:16.441Z,95457.63
2018-03-16T11:25:50.597Z,95449.97
2018-03-16T11:26:24.962Z,95453.88
2018-03-16T11:26:58.549Z,95451.63
2018-03-16T11:27:31.991Z,95468.78
2018-03-16T11:28:06.247Z,95462.84
2018-03-16T11:28:39.644Z,95469.12
2018-03-16T11:29:13.051Z,95464.06
2018-03-16T11:29:47.127Z,95463.98
2018-03-16T11:30:21.245Z,95453.33
2018-03-16T11:30:54.711Z,95460.92
2018-03-16T11:31:29.298Z,95454.75
2018-03-16T11:32:02.755Z,95458.55
2018-03-16T11:32:36.141Z,95460.70
2018-03-16T11:33:10.647Z,95461.52
2018-03-16T11:33:44.170Z,95455.25
2018-03-16T11:34:17.708Z,95453.00
2018-03-16T11:34:51.064Z,95459.30
2018-03-16T11:35:24.412Z,95451.97
2018-03-16T11:35:58.636Z,95455.91
2018-03-16T11:36:32.895Z,95456.80
2018-03-16T11:37:06.395Z,95462.44
2018-03-16T11:37:40.554Z,95458.50
2018-03-16T11:38:14.676Z,95457.06
2018-03-16T11:38:56.808Z,95456.33
2018-03-16T11:39:30.231Z,95454.08
2018-03-16T11:40:04.390Z,95452.52
2018-03-16T11:40:38.594Z,95455.91
2018-03-16T11:41:13.015Z,95452.19
2018-03-16T11:41:46.464Z,95446.77
2018-03-16T11:42:20.616Z,95452.79
2018-03-16T11:42:54.770Z,95451.87
2018-03-16T11:43:28.159Z,95450.86
2018-03-16T11:44:02.475Z,95452.28
2018-03-16T11:44:36.801Z,95447.19
2018-03-16T11:45:11.002Z,95446.10
2018-03-16T11:45:44.387Z,95444.42
2018-03-16T11:46:18.651Z,95444.68
2018-03-16T11:46:56.040Z,95443.09
2018-03-16T11:47:30.186Z,95444.66
2018-03-16T11:48:04.353Z,95439.48
2018-03-16T11:48:38.080Z,95442.81
2018-03-16T11:49:12.564Z,95435.94
2018-03-16T11:49:45.874Z,95439.58
2018-03-16T11:50:19.321Z,95441.50
2018-03-16T11:50:52.716Z,95435.06
2018-03-16T11:51:28.157Z,95441.52
2018-03-16T11:52:02.305Z,95438.06
2018-03-16T11:52:35.842Z,95443.97
2018-03-16T11:53:09.291Z,95439.22
2018-03-16T11:53:42.663Z,95438.82
2018-03-16T11:54:16.230Z,95437.83
2018-03-16T11:54:49.897Z,95437.52
2018-03-16T11:55:24.107Z,95437.14
2018-03-16T11:55:58.651Z,95437.09
2018-03-16T11:56:32.917Z,95436.78
2018-03-16T11:57:07.301Z,95436.27
2018-03-16T11:57:40.833Z,95441.16
2018-03-16T11:58:15.316Z,95431.03
2018-03-16T11:58:49.631Z,95429.03
2018-03-16T11:59:23.110Z,95436.05
2018-03-16T11:59:57.506Z,95430.59
2018-03-16T12:00:31.690Z,95431.12
2018-03-16T12:01:05.363Z,95428.76
2018-03-16T12:01:38.800Z,95429.08
2018-03-16T12:02:13.136Z,95429.83
2018-03-16T12:02:47.311Z,95436.75
2018-03-16T12:03:20.906Z,95434.16
2018-03-16T12:03:54.292Z,95431.28
2018-03-16T12:04:27.760Z,95431.98
2018-03-16T12:05:01.934Z,95433.75
2018-03-16T12:05:36.112Z,95431.62
2018-03-16T12:06:10.224Z,95430.30
2018-03-16T12:06:43.632Z,95428.17
2018-03-16T12:07:17.098Z,95427.11
2018-03-16T12:07:51.268Z,95429.02
2018-03-16T12:08:25.406Z,95426.42
2018-03-16T12:08:58.825Z,95425.39
2018-03-16T12:09:32.343Z,95420.39
2018-03-16T12:10:05.772Z,95425.99
2018-03-16T12:10:39.095Z,95423.69
2018-03-16T12:11:12.662Z,95425.77
2018-03-16T12:11:46.915Z,95424.52
2018-03-16T12:12:20.439Z,95425.12
2018-03-16T12:12:55.432Z,95417.56
2018-03-16T12:13:28.886Z,95427.02
2018-03-16T12:14:02.215Z,95424.29
2018-03-16T12:14:37.354Z,95423.59
2018-03-16T12:15:11.444Z,95426.19
2018-03-16T12:15:45.600Z,95423.17
2018-03-16T12:16:20.699Z,95422.11
2018-03-16T12:16:54.037Z,95425.48
2018-03-16T12:17:28.294Z,95425.49
2018-03-16T12:18:01.724Z,95422.16
2018-03-16T12:18:35.114Z,95427.53
2018-03-16T12:19:08.502Z,95427.58
2018-03-16T12:19:42.647Z,95429.48
2018-03-16T12:20:16.393Z,95433.05
2018-03-16T12:20:49.743Z,95428.98
2018-03-16T12:21:23.109Z,95428.33
2018-03-16T12:21:56.512Z,95423.58
2018-03-16T12:22:29.840Z,95428.42
2018-03-16T12:23:03.909Z,95416.59
2018-03-16T12:23:37.304Z,95418.86
2018-03-16T12:24:10.633Z,95424.89
2018-03-16T12:24:44.757Z,95423.30
2018-03-16T12:25:18.171Z,95419.09
2018-03-16T12:25:51.557Z,95418.34
2018-03-16T12:26:25.728Z,95422.58
2018-03-16T12:26:59.087Z,95422.58
2018-03-16T12:27:33.259Z,95422.42
2018-03-16T12:28:06.680Z,95419.32
2018-03-16T12:28:49.753Z,95418.53
2018-03-16T12:29:13.382Z,95423.23
2018-03-16T12:29:46.769Z,95418.45
2018-03-16T12:30:21.022Z,95419.32
2018-03-16T12:30:54.432Z,95420.95
2018-03-16T12:31:28.029Z,95416.91
2018-03-16T12:32:01.473Z,95423.95
2018-03-16T12:32:35.822Z,95412.30
2018-03-16T12:33:09.237Z,95417.19
2018-03-16T12:33:42.681Z,95416.53
2018-03-16T12:34:16.094Z,95412.44
2018-03-16T12:34:50.286Z,95412.39
2018-03-16T12:35:23.668Z,95417.11
2018-03-16T12:35:57.076Z,95415.41
2018-03-16T12:36:31.257Z,95416.73
2018-03-16T12:37:05.396Z,95413.27
2018-03-16T12:37:38.967Z,95413.28
2018-03-16T12:38:12.437Z,95410.72
2018-03-16T12:38:47.610Z,95407.09
2018-03-16T12:39:21.792Z,95410.97
2018-03-16T12:39:55.218Z,95407.77
2018-03-16T12:40:28.670Z,95409.64
2018-03-16T12:41:02.882Z,95409.42
2018-03-16T12:41:37.154Z,95408.27
2018-03-16T12:42:11.519Z,95411.61
2018-03-16T12:42:44.939Z,95409.42
2018-03-16T12:43:19.088Z,95407.71
2018-03-16T12:43:53.335Z,95410.48
2018-03-16T12:44:27.539Z,95409.22